Strona główna
METAR-TAF:

METAR-TAF

Lotnisko :

Lotnisko Lyon Bron

Lyon, Francja

Szerokość geograficzna: 45-43N, Długość geograficzna: 004-57E, wysokość: 200 m

Aktualna obserwacja pogody

Raport powstał 42 minut temu, godzina 05:00 UTC
Wiatr 2 kt od południe
Temperatura 12°C
Wilgotność 82%
Ciśnienie 1027 hPa
Widzialność 10 km lub więcej
Brak chmur poniżej 1500 m i brak chmur cumulonimbus

METAR: LFLY 280500Z AUTO 18002KT CAVOK 12/09 Q1027

czas: 07:42 (05:42 UTC)


TAF: brakujący

Obserwacja i prognoza pogody dla ponad 4000 lotnisk (raport METAR i TAF).

Dostępne stacje oznaczono żółtymi i czerwonymi punktami na mapie.

Najedź kursorem aby zobaczyć nazwę stacji.

Kliknij aby zobaczyć obserwacje i prognozy pogody.

Aby zmienić mapę: kliknij na zielony przycisk z czarnym krzyżykiem, aby powiększyć; na zielony przycisk z myślnikiem, aby pomniejszyć; na zielone strzałki, aby przejść do map sąsiednich.


METAR-TAF: